createdAt,value
2023-03-18T00:02:05.848Z,12.37
2023-03-18T00:04:33.382Z,11.23
2023-03-18T00:07:00.705Z,10.80
2023-03-18T00:09:28.120Z,11.30
2023-03-18T00:11:57.212Z,12.03
2023-03-18T00:14:24.725Z,11.30
2023-03-18T00:16:52.081Z,12.53
2023-03-18T00:19:20.021Z,13.00
2023-03-18T00:21:47.727Z,12.73
2023-03-18T00:24:15.348Z,12.63
2023-03-18T00:26:42.852Z,12.50
2023-03-18T00:29:10.207Z,12.13
2023-03-18T00:31:40.685Z,11.73
2023-03-18T00:34:08.201Z,12.93
2023-03-18T00:36:37.411Z,12.40
2023-03-18T00:39:05.828Z,13.37
2023-03-18T00:41:36.971Z,12.17
2023-03-18T00:44:05.043Z,11.63
2023-03-18T00:46:37.747Z,11.50
2023-03-18T00:49:06.566Z,12.47
2023-03-18T00:51:35.545Z,12.60
2023-03-18T00:54:06.609Z,13.23
2023-03-18T00:56:34.658Z,11.87
2023-03-18T00:59:02.903Z,11.93
2023-03-18T01:01:31.303Z,12.63
2023-03-18T01:04:00.328Z,13.50
2023-03-18T01:06:31.405Z,14.10
2023-03-18T01:09:01.334Z,12.73
2023-03-18T01:11:30.578Z,12.77
2023-03-18T01:13:59.384Z,12.20
2023-03-18T01:16:29.768Z,12.87
2023-03-18T01:18:57.446Z,12.20
2023-03-18T01:21:25.571Z,12.37
2023-03-18T01:23:57.029Z,12.97
2023-03-18T01:26:27.399Z,14.00
2023-03-18T01:28:58.603Z,13.73
2023-03-18T01:31:26.420Z,13.60
2023-03-18T01:34:00.802Z,12.40
2023-03-18T01:36:30.228Z,12.40
2023-03-18T01:39:08.499Z,13.00
2023-03-18T01:41:39.532Z,13.00
2023-03-18T01:44:13.778Z,14.23
2023-03-18T01:46:46.190Z,13.00
2023-03-18T01:49:20.714Z,14.50
2023-03-18T01:52:03.579Z,13.30
2023-03-18T01:54:32.608Z,13.90
2023-03-18T01:57:00.633Z,12.63
2023-03-18T01:59:29.314Z,13.60
2023-03-18T02:02:06.672Z,13.00
2023-03-18T02:04:39.066Z,12.10
2023-03-18T02:07:08.013Z,14.00
2023-03-18T02:09:35.578Z,13.77
2023-03-18T02:12:04.670Z,12.63
2023-03-18T02:14:32.430Z,12.70
2023-03-18T02:17:02.530Z,14.10
2023-03-18T02:19:49.680Z,12.33
2023-03-18T02:22:31.164Z,12.47
2023-03-18T02:25:20.064Z,12.23
2023-03-18T02:27:51.451Z,13.30
2023-03-18T02:30:21.336Z,12.67
2023-03-18T02:32:52.407Z,13.50
2023-03-18T02:35:20.691Z,14.03
2023-03-18T02:37:49.417Z,13.17
2023-03-18T02:40:28.514Z,13.37
2023-03-18T02:42:57.357Z,13.47
2023-03-18T02:45:34.595Z,12.93
2023-03-18T02:48:12.256Z,13.67
2023-03-18T02:50:42.218Z,13.80
2023-03-18T02:53:12.076Z,12.67
2023-03-18T02:55:39.640Z,13.50
2023-03-18T02:58:08.072Z,13.00
2023-03-18T03:00:36.907Z,12.90
2023-03-18T03:03:05.418Z,13.30
2023-03-18T03:05:34.699Z,13.30
2023-03-18T03:08:04.073Z,13.10
2023-03-18T03:10:34.426Z,12.50
2023-03-18T03:13:02.079Z,12.40
2023-03-18T03:15:30.602Z,13.00
2023-03-18T03:18:00.126Z,13.10
2023-03-18T03:20:27.534Z,11.50
2023-03-18T03:22:55.198Z,11.10
2023-03-18T03:25:22.679Z,10.27
2023-03-18T03:27:50.301Z,12.47
2023-03-18T03:30:18.474Z,12.60
2023-03-18T03:32:46.451Z,12.37
2023-03-18T03:35:18.028Z,13.10
2023-03-18T03:37:45.496Z,11.50
2023-03-18T03:40:14.893Z,12.17
2023-03-18T03:42:42.555Z,12.03
2023-03-18T03:45:14.012Z,11.40
2023-03-18T03:47:42.964Z,11.80
2023-03-18T03:50:11.701Z,12.43
2023-03-18T03:52:39.699Z,12.67
2023-03-18T03:55:11.054Z,12.60
2023-03-18T03:57:38.659Z,12.80
2023-03-18T04:00:07.396Z,12.97
2023-03-18T04:02:45.006Z,11.77
2023-03-18T04:05:14.795Z,12.20
2023-03-18T04:07:42.563Z,12.10
2023-03-18T04:10:12.085Z,12.13
2023-03-18T04:12:40.279Z,12.50
2023-03-18T04:15:09.782Z,11.60
2023-03-18T04:17:37.881Z,13.50
2023-03-18T04:20:05.453Z,11.67
2023-03-18T04:22:34.227Z,14.63
2023-03-18T04:25:07.574Z,14.07
2023-03-18T04:27:35.542Z,12.50
2023-03-18T04:30:08.264Z,11.20
2023-03-18T04:32:43.181Z,11.20
2023-03-18T04:35:11.139Z,11.80
2023-03-18T04:37:38.971Z,11.20
2023-03-18T04:40:07.491Z,11.07
2023-03-18T04:42:35.733Z,12.47
2023-03-18T04:45:03.863Z,12.43
2023-03-18T04:47:32.387Z,12.33
2023-03-18T04:49:59.701Z,13.30
2023-03-18T04:52:27.110Z,12.47
2023-03-18T04:54:54.927Z,12.80
2023-03-18T04:57:22.262Z,11.87
2023-03-18T04:59:53.870Z,12.50
2023-03-18T05:02:21.110Z,13.73
2023-03-18T05:04:48.816Z,12.07
2023-03-18T05:07:16.964Z,12.20
2023-03-18T05:09:54.250Z,11.93
2023-03-18T05:12:22.245Z,12.00
2023-03-18T05:14:49.383Z,11.70
2023-03-18T05:17:16.830Z,12.63
2023-03-18T05:19:53.650Z,12.67
2023-03-18T05:22:23.322Z,12.80
2023-03-18T05:24:57.050Z,13.87
2023-03-18T05:27:28.211Z,13.23
2023-03-18T05:30:01.072Z,13.27
2023-03-18T05:32:41.393Z,14.00
2023-03-18T05:35:10.423Z,13.70
2023-03-18T05:37:46.544Z,14.33
2023-03-18T05:40:14.602Z,14.47
2023-03-18T05:42:55.789Z,14.40
2023-03-18T05:45:30.225Z,14.43
2023-03-18T05:47:57.812Z,14.80
2023-03-18T05:50:33.108Z,13.30
2023-03-18T05:53:02.618Z,12.93
2023-03-18T05:55:34.003Z,15.07
2023-03-18T05:58:01.425Z,14.27
2023-03-18T06:00:30.044Z,14.37
2023-03-18T06:02:59.959Z,15.23
2023-03-18T06:05:28.576Z,15.10
2023-03-18T06:07:56.346Z,14.93
2023-03-18T06:10:25.044Z,15.50
2023-03-18T06:12:52.499Z,14.63
2023-03-18T06:15:21.172Z,13.60
2023-03-18T06:17:48.872Z,14.47
2023-03-18T06:20:18.498Z,14.33
2023-03-18T06:22:49.394Z,13.00
2023-03-18T06:25:20.874Z,13.97
2023-03-18T06:27:49.470Z,15.27
2023-03-18T06:30:18.861Z,13.80
2023-03-18T06:32:46.142Z,13.27
2023-03-18T06:35:13.773Z,13.77
2023-03-18T06:37:41.278Z,17.03
2023-03-18T06:40:10.571Z,14.00
2023-03-18T06:42:37.771Z,13.87
2023-03-18T06:45:10.745Z,14.10
2023-03-18T06:47:49.454Z,12.67
2023-03-18T06:50:16.669Z,13.23
2023-03-18T06:52:44.739Z,13.50
2023-03-18T06:55:16.567Z,12.60
2023-03-18T06:57:45.705Z,12.77
2023-03-18T07:00:16.928Z,13.90
2023-03-18T07:02:44.208Z,15.50
2023-03-18T07:05:14.578Z,15.27
2023-03-18T07:07:42.815Z,15.03
2023-03-18T07:10:11.622Z,13.83
2023-03-18T07:12:40.177Z,13.13
2023-03-18T07:15:09.022Z,14.93
2023-03-18T07:17:37.255Z,14.07
2023-03-18T07:20:05.659Z,14.90
2023-03-18T07:22:35.911Z,14.77
2023-03-18T07:25:03.052Z,14.67
2023-03-18T07:27:31.219Z,14.67
2023-03-18T07:29:58.421Z,14.13
2023-03-18T07:32:26.172Z,15.13
2023-03-18T07:34:53.306Z,15.40
2023-03-18T07:37:20.577Z,14.97
2023-03-18T07:39:48.541Z,15.20
2023-03-18T07:42:15.710Z,15.13
2023-03-18T07:44:46.290Z,13.80
2023-03-18T07:47:17.115Z,14.30
2023-03-18T07:49:45.993Z,15.00
2023-03-18T07:52:13.210Z,14.17
2023-03-18T07:54:42.521Z,14.23
2023-03-18T07:57:10.201Z,13.80
2023-03-18T07:59:38.827Z,13.67
2023-03-18T08:02:08.257Z,13.30
2023-03-18T08:04:35.546Z,14.23
2023-03-18T08:07:03.104Z,13.10
2023-03-18T08:09:30.450Z,13.37
2023-03-18T08:11:58.968Z,13.07
2023-03-18T08:14:26.370Z,12.93
2023-03-18T08:16:54.016Z,13.10
2023-03-18T08:19:21.598Z,13.80
2023-03-18T08:21:49.015Z,13.23
2023-03-18T08:24:17.229Z,13.40
2023-03-18T08:26:45.173Z,13.20
2023-03-18T08:29:12.304Z,12.40
2023-03-18T08:31:39.556Z,12.20
2023-03-18T08:34:06.848Z,11.77
2023-03-18T08:36:34.056Z,11.60
2023-03-18T08:39:01.663Z,11.17
2023-03-18T08:41:28.854Z,11.20
2023-03-18T08:43:57.298Z,10.27
2023-03-18T08:46:24.653Z,9.60
2023-03-18T08:48:57.072Z,10.27
2023-03-18T08:51:26.766Z,8.80
2023-03-18T08:53:54.266Z,9.63
2023-03-18T08:56:21.574Z,9.97
2023-03-18T08:58:49.813Z,8.03
2023-03-18T09:01:18.078Z,7.80
2023-03-18T09:03:45.280Z,8.63
2023-03-18T09:06:13.888Z,6.80
2023-03-18T09:08:41.242Z,6.80
2023-03-18T09:11:09.441Z,6.43
2023-03-18T09:13:39.268Z,6.10
2023-03-18T09:16:07.278Z,6.33
2023-03-18T09:18:35.659Z,6.00
2023-03-18T09:21:03.259Z,6.83
2023-03-18T09:23:30.482Z,7.07
2023-03-18T09:25:57.830Z,7.10
2023-03-18T09:28:25.024Z,7.93
2023-03-18T09:30:52.354Z,5.90
2023-03-18T09:33:20.640Z,5.57
2023-03-18T09:35:48.512Z,5.43
2023-03-18T09:38:17.062Z,6.10
2023-03-18T09:41:05.269Z,5.93
2023-03-18T09:43:42.137Z,6.50
2023-03-18T09:46:24.958Z,5.90
2023-03-18T09:49:11.245Z,6.47
2023-03-18T09:51:48.427Z,5.80
2023-03-18T09:54:24.525Z,5.80
2023-03-18T09:56:53.565Z,6.17
2023-03-18T09:59:41.043Z,5.93
2023-03-18T10:02:18.986Z,4.73
2023-03-18T10:04:59.896Z,6.20
2023-03-18T10:07:31.973Z,5.60
2023-03-18T10:10:10.566Z,5.90
2023-03-18T10:12:39.997Z,4.80
2023-03-18T10:15:08.606Z,5.50
2023-03-18T10:17:39.897Z,5.00
2023-03-18T10:20:18.704Z,5.20
2023-03-18T10:22:50.093Z,5.17
2023-03-18T10:25:21.821Z,4.90
2023-03-18T10:28:04.026Z,5.37
2023-03-18T10:30:47.188Z,5.17
2023-03-18T10:33:23.211Z,4.70
2023-03-18T10:35:59.435Z,5.37
2023-03-18T10:38:31.132Z,5.00
2023-03-18T10:40:58.907Z,4.17
2023-03-18T10:43:28.472Z,4.50
2023-03-18T10:46:00.943Z,5.17
2023-03-18T10:48:37.664Z,4.50
2023-03-18T10:51:04.839Z,4.10
2023-03-18T10:53:39.231Z,4.63
2023-03-18T10:56:10.457Z,4.17
2023-03-18T10:58:42.011Z,4.07
2023-03-18T11:01:12.409Z,4.00
2023-03-18T11:03:59.307Z,4.50
2023-03-18T11:06:31.824Z,3.67
2023-03-18T11:09:06.203Z,4.50
2023-03-18T11:11:34.684Z,3.50
2023-03-18T11:14:03.476Z,3.73
2023-03-18T11:16:42.592Z,3.90
2023-03-18T11:19:29.395Z,3.90
2023-03-18T11:22:15.487Z,3.60
2023-03-18T11:24:42.814Z,3.50
2023-03-18T11:27:25.249Z,5.20
2023-03-18T11:29:57.363Z,4.60
2023-03-18T11:32:26.391Z,3.43
2023-03-18T11:34:57.600Z,3.50
2023-03-18T11:37:51.221Z,3.60
2023-03-18T11:40:20.504Z,3.60
2023-03-18T11:42:49.373Z,3.23
2023-03-18T11:45:35.135Z,3.17
2023-03-18T11:48:03.788Z,3.70
2023-03-18T11:50:43.241Z,3.37
2023-03-18T11:53:15.113Z,3.40
2023-03-18T11:55:55.060Z,2.93
2023-03-18T11:58:22.221Z,3.57
2023-03-18T12:00:56.687Z,3.33
2023-03-18T12:03:27.424Z,3.80
2023-03-18T12:06:02.517Z,3.00
2023-03-18T12:08:52.686Z,2.90
2023-03-18T12:11:25.284Z,3.37
2023-03-18T12:14:11.189Z,5.80
2023-03-18T12:16:54.473Z,2.70
2023-03-18T12:19:31.548Z,3.20
2023-03-18T12:22:13.327Z,4.10
2023-03-18T12:24:54.496Z,4.00
2023-03-18T12:27:27.694Z,3.60
2023-03-18T12:30:01.045Z,3.70
2023-03-18T12:32:38.507Z,3.33
2023-03-18T12:35:25.882Z,4.40
2023-03-18T12:38:22.801Z,3.70
2023-03-18T12:41:07.869Z,3.00
2023-03-18T12:43:51.634Z,3.73
2023-03-18T12:46:24.805Z,3.20
2023-03-18T12:49:12.246Z,3.00
2023-03-18T12:51:52.074Z,3.20
2023-03-18T12:54:24.957Z,3.83
2023-03-18T12:56:55.848Z,4.10
2023-03-18T12:59:27.634Z,3.77
2023-03-18T13:02:13.853Z,3.30
2023-03-18T13:04:43.434Z,3.43
2023-03-18T13:07:21.952Z,4.03
2023-03-18T13:09:52.577Z,5.27
2023-03-18T13:12:31.620Z,3.23
2023-03-18T13:15:08.429Z,3.90
2023-03-18T13:17:38.752Z,3.77
2023-03-18T13:20:14.455Z,3.93
2023-03-18T13:22:46.882Z,3.70
2023-03-18T13:25:18.748Z,3.40
2023-03-18T13:28:07.590Z,3.30
2023-03-18T13:30:48.925Z,3.70
2023-03-18T13:33:27.088Z,4.60
2023-03-18T13:36:14.100Z,3.27
2023-03-18T13:38:50.398Z,4.63
2023-03-18T13:41:42.543Z,3.77
2023-03-18T13:44:13.390Z,3.87
2023-03-18T13:46:41.548Z,4.30
2023-03-18T13:49:16.972Z,3.67
2023-03-18T13:51:55.140Z,3.23
2023-03-18T13:54:23.540Z,3.90
2023-03-18T13:56:55.409Z,3.80
2023-03-18T13:59:43.124Z,3.60
2023-03-18T14:02:29.289Z,2.80
2023-03-18T14:04:58.319Z,3.70
2023-03-18T14:07:25.955Z,3.40
2023-03-18T14:10:17.835Z,3.57
2023-03-18T14:12:47.408Z,3.43
2023-03-18T14:15:15.611Z,3.60
2023-03-18T14:17:55.262Z,3.77
2023-03-18T14:20:24.375Z,3.40
2023-03-18T14:22:53.751Z,3.77
2023-03-18T14:25:23.099Z,3.60
2023-03-18T14:27:55.338Z,4.13
2023-03-18T14:30:32.037Z,3.93
2023-03-18T14:33:04.348Z,4.30
2023-03-18T14:35:36.511Z,3.93
2023-03-18T14:38:07.231Z,4.03
2023-03-18T14:40:42.812Z,3.83
2023-03-18T14:43:11.780Z,4.57
2023-03-18T14:45:44.701Z,3.80
2023-03-18T14:48:17.550Z,3.43
2023-03-18T14:50:50.205Z,3.53
2023-03-18T14:53:17.396Z,3.77
2023-03-18T14:55:44.977Z,3.50
2023-03-18T14:58:16.589Z,3.97
2023-03-18T15:00:44.046Z,3.77
2023-03-18T15:03:22.032Z,4.50
2023-03-18T15:05:55.181Z,4.07
2023-03-18T15:08:44.591Z,3.60
2023-03-18T15:11:15.479Z,3.73
2023-03-18T15:13:42.977Z,5.23
2023-03-18T15:16:12.290Z,4.47
2023-03-18T15:18:39.930Z,3.40
2023-03-18T15:21:16.059Z,4.43
2023-03-18T15:23:48.317Z,3.70
2023-03-18T15:26:26.596Z,3.67
2023-03-18T15:28:57.376Z,3.90
2023-03-18T15:31:29.786Z,4.10
2023-03-18T15:34:08.610Z,4.60
2023-03-18T15:36:43.140Z,4.13
2023-03-18T15:39:21.555Z,4.43
2023-03-18T15:41:52.086Z,4.90
2023-03-18T15:44:24.495Z,6.30
2023-03-18T15:46:52.341Z,4.80
2023-03-18T15:49:24.938Z,4.40
2023-03-18T15:52:01.801Z,4.10
2023-03-18T15:54:41.575Z,4.40
2023-03-18T15:57:13.621Z,4.80
2023-03-18T15:59:40.833Z,4.00
2023-03-18T16:02:12.517Z,3.80
2023-03-18T16:04:44.199Z,4.73
2023-03-18T16:07:17.257Z,5.00
2023-03-18T16:09:45.328Z,5.17
2023-03-18T16:12:19.675Z,5.10
2023-03-18T16:14:48.381Z,6.70
2023-03-18T16:17:16.728Z,4.77
2023-03-18T16:19:45.607Z,4.07
2023-03-18T16:22:14.160Z,3.87
2023-03-18T16:24:44.429Z,4.30
2023-03-18T16:27:29.095Z,7.97
2023-03-18T16:29:56.714Z,5.10
2023-03-18T16:32:24.182Z,5.03
2023-03-18T16:34:51.755Z,8.20
2023-03-18T16:37:21.307Z,6.70
2023-03-18T16:39:48.545Z,4.83
2023-03-18T16:42:17.609Z,4.00
2023-03-18T16:44:46.229Z,7.13
2023-03-18T16:47:21.571Z,4.03
2023-03-18T16:49:48.746Z,5.13
2023-03-18T16:52:16.573Z,7.00
2023-03-18T16:54:43.853Z,5.53
2023-03-18T16:57:16.987Z,4.77
2023-03-18T16:59:47.865Z,5.50
2023-03-18T17:02:29.734Z,6.30
2023-03-18T17:04:57.169Z,4.53
2023-03-18T17:07:24.389Z,7.93
2023-03-18T17:09:52.000Z,5.30
2023-03-18T17:12:19.510Z,4.97
2023-03-18T17:14:55.358Z,9.17
2023-03-18T17:17:22.509Z,5.60
2023-03-18T17:19:49.729Z,4.70
2023-03-18T17:22:21.809Z,4.40
2023-03-18T17:24:49.972Z,4.73
2023-03-18T17:27:32.200Z,5.50
2023-03-18T17:30:00.772Z,6.37
2023-03-18T17:32:28.746Z,5.57
2023-03-18T17:34:56.327Z,5.80
2023-03-18T17:37:23.902Z,8.83
2023-03-18T17:39:51.533Z,10.40
2023-03-18T17:42:31.309Z,10.40
2023-03-18T17:45:03.708Z,10.07
2023-03-18T17:47:33.665Z,6.40
2023-03-18T17:50:01.426Z,15.87
2023-03-18T17:52:28.640Z,9.33
2023-03-18T17:54:56.631Z,8.47
2023-03-18T17:57:24.196Z,5.47
2023-03-18T17:59:51.579Z,8.80
2023-03-18T18:02:20.213Z,6.70
2023-03-18T18:04:47.623Z,6.00
2023-03-18T18:07:18.849Z,6.33
2023-03-18T18:09:46.878Z,5.60
2023-03-18T18:12:21.871Z,7.13
2023-03-18T18:14:49.476Z,7.50
2023-03-18T18:17:17.465Z,12.73
2023-03-18T18:19:45.554Z,14.47
2023-03-18T18:22:17.008Z,10.43
2023-03-18T18:24:46.805Z,10.40
2023-03-18T18:27:14.753Z,9.90
2023-03-18T18:29:43.778Z,10.40
2023-03-18T18:32:11.343Z,9.30
2023-03-18T18:34:39.010Z,7.57
2023-03-18T18:37:07.175Z,8.30
2023-03-18T18:39:34.425Z,12.23
2023-03-18T18:42:02.807Z,11.30
2023-03-18T18:44:30.088Z,10.93
2023-03-18T18:46:57.456Z,8.97
2023-03-18T18:49:24.921Z,9.73
2023-03-18T18:51:54.527Z,8.57
2023-03-18T18:54:22.619Z,11.37
2023-03-18T18:56:50.744Z,9.93
2023-03-18T18:59:30.685Z,11.93
2023-03-18T19:01:58.538Z,11.73
2023-03-18T19:04:25.794Z,13.87
2023-03-18T19:06:54.188Z,20.13
2023-03-18T19:09:23.854Z,39.47
2023-03-18T19:11:53.222Z,35.80
2023-03-18T19:14:24.217Z,34.60
2023-03-18T19:16:52.565Z,40.50
2023-03-18T19:19:22.005Z,39.67
2023-03-18T19:21:50.879Z,40.90
2023-03-18T19:24:27.700Z,38.23
2023-03-18T19:26:56.049Z,42.60
2023-03-18T19:29:24.176Z,38.03
2023-03-18T19:31:52.582Z,35.60
2023-03-18T19:34:20.345Z,37.63
2023-03-18T19:36:48.965Z,33.23
2023-03-18T19:39:18.822Z,32.60
2023-03-18T19:41:47.618Z,30.20
2023-03-18T19:44:22.482Z,28.60
2023-03-18T19:46:52.263Z,23.17
2023-03-18T19:49:33.749Z,26.27
2023-03-18T19:52:01.700Z,23.50
2023-03-18T19:54:31.369Z,22.60
2023-03-18T19:57:06.662Z,19.83
2023-03-18T19:59:39.634Z,23.10
2023-03-18T20:02:26.032Z,23.90
2023-03-18T20:04:54.484Z,35.30
2023-03-18T20:07:22.959Z,47.53
2023-03-18T20:09:51.619Z,33.90
2023-03-18T20:12:25.320Z,67.67
2023-03-18T20:14:52.679Z,22.20
2023-03-18T20:17:28.297Z,19.70
2023-03-18T20:19:59.825Z,19.50
2023-03-18T20:22:29.419Z,18.60
2023-03-18T20:24:57.001Z,18.90
2023-03-18T20:27:25.294Z,23.67
2023-03-18T20:29:52.879Z,22.30
2023-03-18T20:32:20.947Z,22.10
2023-03-18T20:34:48.404Z,21.87
2023-03-18T20:37:21.007Z,22.50
2023-03-18T20:39:49.259Z,21.53
2023-03-18T20:42:17.434Z,20.83
2023-03-18T20:44:45.126Z,20.57
2023-03-18T20:47:13.394Z,18.67
2023-03-18T20:49:44.443Z,18.80
2023-03-18T20:52:22.853Z,21.10
2023-03-18T20:54:50.906Z,20.60
2023-03-18T20:57:18.826Z,26.33
2023-03-18T20:59:47.063Z,24.97
2023-03-18T21:02:29.234Z,26.50
2023-03-18T21:04:57.431Z,26.60
2023-03-18T21:07:25.406Z,23.57
2023-03-18T21:09:53.143Z,24.17
2023-03-18T21:12:21.306Z,22.10
2023-03-18T21:14:49.131Z,21.77
2023-03-18T21:17:18.748Z,24.67
2023-03-18T21:19:46.711Z,23.13
2023-03-18T21:22:16.078Z,23.63
2023-03-18T21:24:44.412Z,21.77
2023-03-18T21:27:19.841Z,22.33
2023-03-18T21:29:48.468Z,23.70
2023-03-18T21:32:27.052Z,24.70
2023-03-18T21:34:54.922Z,24.50
2023-03-18T21:37:24.307Z,24.33
2023-03-18T21:39:51.628Z,25.80
2023-03-18T21:42:20.658Z,22.77
2023-03-18T21:44:48.243Z,25.30
2023-03-18T21:47:20.105Z,24.10
2023-03-18T21:49:47.731Z,24.10
2023-03-18T21:52:17.582Z,24.57
2023-03-18T21:54:45.239Z,24.00
2023-03-18T21:57:16.916Z,24.03
2023-03-18T21:59:45.409Z,23.43
2023-03-18T22:02:32.372Z,22.37
2023-03-18T22:05:01.586Z,19.97
2023-03-18T22:07:30.665Z,21.50
2023-03-18T22:09:58.579Z,22.00
2023-03-18T22:12:30.314Z,22.50
2023-03-18T22:14:57.888Z,22.70
2023-03-18T22:17:27.128Z,22.97
2023-03-18T22:19:56.739Z,23.97
2023-03-18T22:22:25.550Z,24.40
2023-03-18T22:24:52.820Z,24.13
2023-03-18T22:27:22.876Z,25.03
2023-03-18T22:29:51.173Z,21.03
2023-03-18T22:32:37.293Z,22.20
2023-03-18T22:35:05.823Z,21.80
2023-03-18T22:37:33.096Z,26.90
2023-03-18T22:40:01.515Z,22.37
2023-03-18T22:42:28.890Z,23.97
2023-03-18T22:44:56.132Z,22.00
2023-03-18T22:47:24.477Z,22.37
2023-03-18T22:49:52.084Z,24.83
2023-03-18T22:52:19.552Z,21.80
2023-03-18T22:54:47.188Z,24.90
2023-03-18T22:57:19.162Z,25.37
2023-03-18T22:59:46.466Z,24.60
2023-03-18T23:02:18.292Z,27.43
2023-03-18T23:04:47.511Z,22.27
2023-03-18T23:07:34.044Z,23.97
2023-03-18T23:10:03.080Z,22.40
2023-03-18T23:12:32.633Z,21.83
2023-03-18T23:15:03.828Z,22.10
2023-03-18T23:17:31.447Z,23.07
2023-03-18T23:19:58.922Z,22.57
2023-03-18T23:22:33.754Z,22.60
2023-03-18T23:25:01.117Z,20.37
2023-03-18T23:27:28.926Z,19.70
2023-03-18T23:29:56.625Z,22.27
2023-03-18T23:32:24.198Z,20.00
2023-03-18T23:34:51.643Z,22.17
2023-03-18T23:37:18.934Z,19.83
2023-03-18T23:39:46.346Z,21.70
2023-03-18T23:42:14.558Z,21.10
2023-03-18T23:44:41.765Z,20.13
2023-03-18T23:47:09.565Z,22.43
2023-03-18T23:49:36.734Z,19.93
2023-03-18T23:52:05.886Z,21.27
2023-03-18T23:54:34.021Z,18.97
2023-03-18T23:57:02.012Z,19.80
2023-03-18T23:59:29.497Z,22.50
